Time;durP1;ratioP1;P1;durP2;ratioP2;P2;SDS_P1;SDS_P2;PMS_P1;PMS_P2;Temp;Humidity;BMP_temperature;BMP_pressure;BME280_temperature;BME280_humidity;BME280_pressure;Samples;Min_cycle;Max_cycle;Signal;HPM_P1;HPM_P2
2021/01/16 00:00:25;;;;;;;4.00;3.00;;;-1.20;99.90;;;-0.45;75.42;101292.78;5071687;28;20254;-62
2021/01/16 00:02:52;;;;;;;4.87;3.30;;;-1.20;99.90;;;-0.82;76.90;101288.69;5072171;28;20607;-61
2021/01/16 00:05:22;;;;;;;3.93;2.90;;;-1.40;99.90;;;-0.61;75.38;101293.16;5071651;28;20207;-62
2021/01/16 00:08:03;;;;;;;4.77;3.50;;;-1.40;99.90;;;-0.65;75.17;101291.72;5072314;28;20227;-61
2021/01/16 00:10:33;;;;;;;5.07;3.60;;;-1.40;99.90;;;-0.49;74.88;101289.53;5072251;28;20208;-62
2021/01/16 00:13:01;;;;;;;5.70;3.30;;;-1.30;99.90;;;-0.33;74.24;101286.53;5071508;28;20775;-61
2021/01/16 00:15:30;;;;;;;4.03;3.27;;;-1.30;99.90;;;-0.21;73.10;101293.47;5071917;28;20254;-60
2021/01/16 00:18:03;;;;;;;5.07;3.37;;;-1.20;99.90;;;-0.49;74.91;101286.88;5071700;28;20218;-60
2021/01/16 00:20:32;;;;;;;4.27;3.10;;;-1.20;99.90;;;-0.39;75.22;101294.97;5068573;28;20269;-61
2021/01/16 00:23:00;;;;;;;4.93;3.90;;;-1.20;99.90;;;-0.58;75.56;101295.56;5072062;28;20235;-61
2021/01/16 00:25:27;;;;;;;4.70;3.50;;;-1.30;99.90;;;-0.63;75.66;101295.09;5071996;28;20232;-61
2021/01/16 00:27:55;;;;;;;4.37;3.47;;;-1.40;99.90;;;-0.52;75.36;101297.72;5071977;28;20279;-61
2021/01/16 00:30:26;;;;;;;4.10;3.20;;;-1.30;99.90;;;-0.34;75.91;101290.16;5071749;28;20201;-61
2021/01/16 00:32:54;;;;;;;4.33;3.63;;;-1.30;99.90;;;-0.39;76.48;101292.31;5071561;28;20297;-61
2021/01/16 00:35:23;;;;;;;3.70;3.27;;;-1.30;99.90;;;-0.30;73.82;101300.34;5071779;28;20195;-61
2021/01/16 00:37:52;;;;;;;4.87;3.00;;;-1.30;99.90;;;-0.27;72.40;101299.28;5071937;28;20300;-62
2021/01/16 00:40:22;;;;;;;3.83;3.03;;;-1.20;99.90;;;-0.36;73.48;101302.66;5071499;28;20728;-61
2021/01/16 00:42:53;;;;;;;5.63;3.20;;;-1.20;99.90;;;-0.35;71.45;101302.53;5071722;28;20178;-61
2021/01/16 00:45:22;;;;;;;3.50;2.60;;;-1.20;99.90;;;-0.65;71.71;101304.94;5071618;28;20185;-60
2021/01/16 00:47:51;;;;;;;2.83;2.23;;;-1.30;99.90;;;-0.48;69.80;101300.97;5071644;28;20208;-61
2021/01/16 00:50:21;;;;;;;2.70;2.27;;;-1.30;99.90;;;-0.55;70.54;101294.47;5070670;28;20727;-61
2021/01/16 00:52:56;;;;;;;2.83;2.53;;;-1.40;99.90;;;-0.41;69.47;101296.88;5071537;28;20216;-61
2021/01/16 00:55:25;;;;;;;3.80;2.53;;;-1.30;99.90;;;-0.53;69.67;101303.13;5071692;28;20231;-61
2021/01/16 00:57:53;;;;;;;3.77;2.60;;;-1.30;99.90;;;-0.82;71.38;101304.56;5072239;28;20240;-61
2021/01/16 01:00:23;;;;;;;3.53;2.60;;;-1.40;99.90;;;-0.62;70.84;101304.69;5074988;28;20232;-60
2021/01/16 01:02:51;;;;;;;3.50;2.50;;;-1.40;99.90;;;-0.53;70.76;101308.44;5075199;28;20679;-60
2021/01/16 01:05:24;;;;;;;3.23;2.57;;;-1.40;99.90;;;-0.46;69.98;101301.69;5074193;28;20694;-61
2021/01/16 01:07:53;;;;;;;2.77;2.27;;;-1.40;99.90;;;-0.68;71.35;101310.47;5074193;28;20255;-61
2021/01/16 01:10:26;;;;;;;3.80;2.53;;;-1.40;99.90;;;-0.62;70.00;101304.69;5074646;28;20635;-61
2021/01/16 01:12:53;;;;;;;3.67;2.40;;;-1.40;99.90;;;-0.60;69.47;101307.22;5074832;28;20535;-61
2021/01/16 01:15:21;;;;;;;2.47;2.20;;;-1.40;99.90;;;-0.60;69.31;101313.38;5075178;28;20248;-61
2021/01/16 01:17:53;;;;;;;4.13;2.77;;;-1.40;99.90;;;-0.51;68.55;101312.63;5074796;28;20236;-61
2021/01/16 01:20:23;;;;;;;3.83;2.67;;;-1.40;99.90;;;-0.69;70.24;101307.94;5074338;28;20290;-61
2021/01/16 01:22:51;;;;;;;3.73;2.40;;;-1.40;99.90;;;-0.77;70.54;101312.97;5074957;28;20196;-61
2021/01/16 01:25:19;;;;;;;4.97;2.73;;;-1.50;99.90;;;-0.65;68.34;101317.31;5074759;28;20215;-62
2021/01/16 01:27:51;;;;;;;2.80;2.20;;;-1.50;99.90;;;-0.51;68.65;101317.91;5074777;28;20204;-61
2021/01/16 01:30:20;;;;;;;2.80;2.40;;;-1.40;99.90;;;-0.54;68.62;101315.50;5075104;28;20557;-60
2021/01/16 01:32:48;;;;;;;2.57;2.27;;;-1.40;99.90;;;-0.55;67.07;101320.94;5074723;28;20282;-62
2021/01/16 01:35:18;;;;;;;2.40;2.20;;;-1.40;99.90;;;-0.44;67.39;101319.13;5074226;28;20304;-61
2021/01/16 01:37:49;;;;;;;3.10;2.47;;;-1.40;99.90;;;-0.97;69.80;101327.75;5074710;28;20250;-61
2021/01/16 01:40:18;;;;;;;3.17;2.40;;;-1.50;99.90;;;-0.64;68.17;101311.91;5074681;28;20219;-60
2021/01/16 01:42:48;;;;;;;3.50;2.53;;;-1.40;99.90;;;-0.70;68.78;101312.41;5074254;28;20718;-61
2021/01/16 01:45:18;;;;;;;3.63;2.50;;;-1.50;99.90;;;-0.42;69.32;101319.84;5074235;28;20659;-61
2021/01/16 01:47:48;;;;;;;3.47;2.43;;;-1.40;99.90;;;-0.59;70.58;101319.50;5074401;28;20240;-61
2021/01/16 01:50:18;;;;;;;3.53;2.43;;;-1.20;99.90;;;-0.54;70.18;101314.69;5073996;28;20320;-61
2021/01/16 01:52:51;;;;;;;3.77;2.73;;;-1.40;99.90;;;-0.72;71.52;101319.59;5074053;28;20748;-61
2021/01/16 01:55:20;;;;;;;2.93;2.40;;;-1.50;99.90;;;-0.60;71.50;101318.66;5074446;28;20292;-61
2021/01/16 01:57:54;;;;;;;2.63;2.40;;;-1.40;99.90;;;-0.68;70.78;101313.13;5074206;28;20281;-61
2021/01/16 02:00:22;;;;;;;2.93;2.50;;;-1.40;99.90;;;-0.71;71.58;101310.69;5074192;28;20275;-61
2021/01/16 02:02:50;;;;;;;3.00;2.53;;;-1.50;99.90;;;-0.93;73.37;101318.59;5073842;28;20196;-62
2021/01/16 02:05:18;;;;;;;3.20;2.73;;;-1.60;99.90;;;-0.58;71.82;101315.88;5074170;28;20284;-61
2021/01/16 02:07:46;;;;;;;2.90;2.57;;;-1.50;99.90;;;-0.31;69.60;101314.56;5073851;28;20215;-61
2021/01/16 02:10:22;;;;;;;3.33;2.60;;;-1.30;99.90;;;-0.83;72.71;101319.59;5074182;28;20192;-61
2021/01/16 02:12:52;;;;;;;4.37;3.20;;;-1.40;99.90;;;-1.01;74.19;101314.88;5073398;28;20236;-61
2021/01/16 02:15:38;;;;;;;3.63;2.77;;;-1.60;99.90;;;-0.62;72.62;101315.28;5059575;28;20230;-61
2021/01/16 02:18:19;;;;;;;4.10;2.83;;;-1.50;99.90;;;-0.50;72.25;101313.47;5053162;28;20625;-62
2021/01/16 02:20:48;;;;;;;3.57;2.73;;;-1.50;99.90;;;-0.65;72.49;101318.16;5053744;28;20529;-62
2021/01/16 02:23:45;;;;;;;3.90;2.67;;;-1.40;99.90;;;-0.69;73.30;101318.50;5053593;28;20609;-61
2021/01/16 02:27:08;;;;;;;4.03;3.00;;;-1.40;99.90;;;-0.36;72.89;101311.44;5053837;28;20271;-62
2021/01/16 02:29:37;;;;;;;3.53;3.10;;;-1.40;99.90;;;-0.67;74.63;101313.94;5047801;28;20299;-60
2021/01/16 02:32:09;;;;;;;3.70;2.73;;;-1.40;99.90;;;-0.44;75.11;101318.31;5053701;28;20350;-61
2021/01/16 02:34:42;;;;;;;4.67;3.20;;;-1.40;99.90;;;-0.29;74.08;101312.59;5053262;28;20189;-61
2021/01/16 02:37:52;;;;;;;3.83;3.10;;;-1.30;99.90;;;-0.68;76.85;101313.13;5053602;28;20234;-61
2021/01/16 02:40:24;;;;;;;5.00;2.97;;;-1.40;99.90;;;-0.50;76.05;101313.47;5053236;28;20288;-62
2021/01/16 02:43:18;;;;;;;3.87;3.20;;;-1.40;99.90;;;-0.66;76.54;101313.81;5053364;28;20215;-61
2021/01/16 02:45:57;;;;;;;4.93;3.20;;;-1.40;99.90;;;-0.63;76.40;101304.81;5053424;28;20272;-61
2021/01/16 02:48:39;;;;;;;3.33;2.73;;;-1.40;99.90;;;-0.97;79.17;101313.69;5052783;28;20200;-61
2021/01/16 02:51:15;;;;;;;3.40;2.90;;;-1.50;99.90;;;-0.60;77.01;101305.44;5052824;28;20758;-61
2021/01/16 02:53:47;;;;;;;5.27;3.20;;;-1.50;99.90;;;-0.60;77.00;101313.38;5053099;28;20240;-61
2021/01/16 02:56:18;;;;;;;7.00;3.33;;;-1.50;99.90;;;-1.00;78.61;101298.91;5053311;28;20189;-62
2021/01/16 02:58:45;;;;;;;3.77;3.03;;;-1.60;99.90;;;-0.98;79.71;101296.97;5053140;28;20194;-61
2021/01/16 03:01:13;;;;;;;3.30;2.80;;;-1.60;99.90;;;-0.71;78.71;101286.91;5052867;28;20213;-61
2021/01/16 03:03:41;;;;;;;5.03;3.30;;;-1.60;99.90;;;-0.57;78.27;101289.31;5052862;28;20598;-61
2021/01/16 03:06:09;;;;;;;3.90;3.03;;;-1.50;99.90;;;-0.57;78.61;101288.47;5052576;28;20263;-62
2021/01/16 03:08:37;;;;;;;3.73;3.33;;;-1.50;99.90;;;-0.49;78.95;101278.94;5052684;28;20675;-61
2021/01/16 03:11:07;;;;;;;4.57;3.63;;;-1.40;99.90;;;-0.77;79.59;101283.88;5052854;28;20262;-61
2021/01/16 03:13:35;;;;;;;4.00;3.37;;;-1.50;99.90;;;-0.82;79.03;101283.41;5052669;28;20319;-61
2021/01/16 03:16:09;;;;;;;3.13;2.80;;;-1.60;99.90;;;-0.94;79.08;101276.41;5052817;28;20201;-60
2021/01/16 03:18:44;;;;;;;3.57;2.83;;;-1.60;99.90;;;-0.76;78.30;101280.31;5052630;28;20189;-61
2021/01/16 03:21:11;;;;;;;4.17;2.83;;;-1.60;99.90;;;-0.67;77.90;101269.84;5052133;28;20273;-61
2021/01/16 03:23:38;;;;;;;4.43;3.30;;;-1.60;99.90;;;-0.86;78.50;101269.59;5052431;28;20240;-61
2021/01/16 03:26:06;;;;;;;4.17;3.03;;;-1.60;99.90;;;-1.01;79.66;101262.84;5052481;28;20209;-61
2021/01/16 03:28:33;;;;;;;4.70;3.20;;;-1.70;99.90;;;-0.93;79.90;101260.44;5052568;28;20205;-61
2021/01/16 03:31:00;;;;;;;3.83;3.00;;;-1.70;99.90;;;-0.82;79.16;101264.91;5052840;28;20251;-60
2021/01/16 03:33:28;;;;;;;4.17;3.27;;;-1.70;99.90;;;-0.86;78.66;101258.19;5051969;28;20233;-61
2021/01/16 03:35:56;;;;;;;3.73;3.07;;;-1.70;99.90;;;-0.66;78.50;101260.09;5051268;28;20248;-61
2021/01/16 03:38:23;;;;;;;3.03;2.70;;;-1.70;99.90;;;-0.64;78.01;101260.84;5052133;28;20656;-61
2021/01/16 03:40:50;;;;;;;4.63;3.07;;;-1.60;99.90;;;-0.51;76.57;101265.00;5052454;28;20225;-60
2021/01/16 03:43:17;;;;;;;3.70;3.07;;;-1.60;99.90;;;-0.72;77.91;101264.06;5052284;28;20282;-61
2021/01/16 03:45:45;;;;;;;4.77;3.10;;;-1.60;99.90;;;-0.81;78.71;101264.78;5052468;28;20225;-61
2021/01/16 03:48:12;;;;;;;5.20;3.17;;;-1.60;99.90;;;-0.67;77.09;101261.91;5052137;28;20701;-61
2021/01/16 03:50:39;;;;;;;4.17;3.23;;;-1.60;99.90;;;-0.58;76.25;101262.97;5052018;28;20310;-61
2021/01/16 03:53:08;;;;;;;4.10;3.23;;;-1.50;99.90;;;-0.59;76.92;101259.47;5052388;28;20227;-61
2021/01/16 03:55:35;;;;;;;4.90;3.23;;;-1.50;99.90;;;-0.70;76.73;101258.66;5052044;28;20298;-60
2021/01/16 03:58:02;;;;;;;4.03;3.00;;;-1.50;99.90;;;-0.75;76.38;101263.47;5052269;28;20204;-61
2021/01/16 04:00:30;;;;;;;4.73;3.40;;;-1.50;99.90;;;-0.70;77.47;101256.00;5052042;28;20772;-61
2021/01/16 04:02:57;;;;;;;5.53;3.30;;;-1.60;99.90;;;-0.63;77.02;101257.22;5051875;28;20219;-61
2021/01/16 04:05:24;;;;;;;4.07;3.17;;;-1.50;99.90;;;-0.49;76.63;101257.78;5052233;28;20562;-61
2021/01/16 04:07:51;;;;;;;3.00;2.70;;;-1.50;99.90;;;-0.52;76.26;101259.84;5051920;28;20205;-61
2021/01/16 04:10:20;;;;;;;4.43;3.00;;;-1.50;99.90;;;-0.83;77.82;101264.03;5052019;28;20330;-61
2021/01/16 04:12:47;;;;;;;4.40;3.17;;;-1.50;99.90;;;-0.68;76.76;101262.03;5051576;28;20271;-61
2021/01/16 04:15:15;;;;;;;3.30;2.87;;;-1.50;99.90;;;-0.73;76.22;101264.19;5052258;28;20266;-61
2021/01/16 04:17:42;;;;;;;3.53;2.90;;;-1.50;99.90;;;-0.53;77.02;101259.00;5051829;28;20887;-61
2021/01/16 04:20:11;;;;;;;3.67;2.50;;;-1.50;99.90;;;-0.73;76.01;101253.59;5052003;28;20288;-61
2021/01/16 04:22:38;;;;;;;5.07;3.40;;;-1.50;99.90;;;-0.89;76.04;101264.53;5051962;28;20238;-61
2021/01/16 04:25:07;;;;;;;2.97;2.53;;;-1.60;99.90;;;-0.83;76.41;101261.41;5051984;28;20208;-61
2021/01/16 04:27:35;;;;;;;4.40;2.73;;;-1.60;99.90;;;-0.81;76.71;101262.13;5052000;28;20237;-62
2021/01/16 04:30:05;;;;;;;3.90;3.00;;;-1.60;99.90;;;-0.78;76.89;101261.06;5051958;28;20210;-62
2021/01/16 04:32:32;;;;;;;4.40;2.87;;;-1.60;99.90;;;-0.60;75.88;101259.59;5052425;28;20320;-61
2021/01/16 04:35:00;;;;;;;5.50;3.20;;;-1.50;99.90;;;-0.86;76.54;101263.47;5055622;28;20545;-61
2021/01/16 04:37:27;;;;;;;3.50;2.90;;;-1.60;99.90;;;-0.84;77.52;101251.78;5055480;28;20668;-61
2021/01/16 04:39:54;;;;;;;3.80;3.13;;;-1.60;99.90;;;-0.74;77.17;101250.13;5055531;28;20289;-61
2021/01/16 04:42:22;;;;;;;3.50;3.00;;;-1.60;99.90;;;-0.64;76.55;101255.53;5055484;28;20683;-61
2021/01/16 04:44:51;;;;;;;4.00;3.53;;;-1.60;99.90;;;-0.64;76.51;101256.34;5055725;28;20211;-62
2021/01/16 04:47:25;;;;;;;3.73;3.00;;;-1.50;99.90;;;-0.65;76.61;101253.84;5055509;28;20243;-61
2021/01/16 04:49:53;;;;;;;4.57;2.93;;;-1.50;99.90;;;-0.72;77.05;101250.84;5055336;28;20231;-61
2021/01/16 04:52:28;;;;;;;4.17;2.93;;;-1.50;99.90;;;-0.78;77.17;101261.91;5055292;28;20255;-61
2021/01/16 04:54:56;;;;;;;3.73;2.90;;;-1.50;99.90;;;-0.76;77.38;101249.38;5055469;28;20264;-61
2021/01/16 04:57:24;;;;;;;4.10;3.07;;;-1.60;99.90;;;-0.73;76.94;101249.16;5055285;28;20636;-61
2021/01/16 04:59:54;;;;;;;5.20;3.20;;;-1.60;99.90;;;-0.71;76.69;101254.34;5055074;28;20228;-61
2021/01/16 05:02:23;;;;;;;4.73;3.30;;;-1.60;99.90;;;-0.60;76.70;101254.31;5054895;28;20208;-62
2021/01/16 05:04:51;;;;;;;4.83;3.50;;;-1.50;99.90;;;-0.76;77.11;101251.22;5055065;28;20201;-62
2021/01/16 05:07:19;;;;;;;5.10;3.00;;;-1.60;99.90;;;-0.91;77.43;101253.22;5054877;28;20296;-63
2021/01/16 05:09:47;;;;;;;4.30;3.20;;;-1.60;99.90;;;-0.91;77.20;101257.69;5055398;28;20243;-62
2021/01/16 05:13:00;;;;;;;4.37;3.43;;;-1.60;99.90;;;-0.72;77.28;101244.69;5055235;28;20549;-61
2021/01/16 05:15:32;;;;;;;5.53;3.40;;;-1.60;99.90;;;-0.74;77.14;101247.47;5042253;28;20197;-61
2021/01/16 05:18:04;;;;;;;4.13;3.20;;;-1.50;99.90;;;-0.75;76.82;101251.09;5054507;28;20225;-61
2021/01/16 05:20:32;;;;;;;4.17;3.23;;;-1.50;99.90;;;-0.76;76.98;101249.38;5054702;28;20193;-61
2021/01/16 05:23:13;;;;;;;4.90;3.60;;;-1.60;99.90;;;-1.11;78.40;101251.28;5054632;28;20726;-62
2021/01/16 05:25:48;;;;;;;5.10;3.63;;;-1.70;99.90;;;-0.82;78.38;101249.03;5054634;28;20667;-61
2021/01/16 05:28:18;;;;;;;4.17;3.20;;;-1.70;99.90;;;-0.95;77.44;101248.31;5054872;28;20274;-62
2021/01/16 05:30:53;;;;;;;4.37;3.27;;;-1.70;99.90;;;-0.99;79.23;101253.00;5054679;28;20232;-62
2021/01/16 05:33:23;;;;;;;4.13;3.47;;;-1.70;99.90;;;-0.76;77.76;101251.22;5054743;28;20275;-61
2021/01/16 05:35:53;;;;;;;4.50;3.60;;;-1.60;99.90;;;-0.59;77.43;101256.00;5054492;28;20657;-61
2021/01/16 05:38:27;;;;;;;5.20;3.23;;;-1.50;99.90;;;-0.75;77.33;101247.59;5054403;28;20675;-61
2021/01/16 05:40:57;;;;;;;4.77;3.50;;;-1.50;99.90;;;-0.68;76.84;101244.34;5054436;28;20679;-61
2021/01/16 05:43:27;;;;;;;4.37;3.37;;;-1.50;99.90;;;-0.65;76.82;101245.91;5054320;28;20576;-62
2021/01/16 05:46:01;;;;;;;4.23;3.43;;;-1.50;99.90;;;-0.80;76.72;101239.19;5053961;28;20201;-62
2021/01/16 05:48:31;;;;;;;4.83;3.60;;;-1.50;99.90;;;-0.91;78.87;101234.72;5054571;28;20259;-61
2021/01/16 05:51:00;;;;;;;5.77;3.40;;;-1.50;99.90;;;-0.81;77.54;101240.97;5053825;28;20233;-61
2021/01/16 05:53:29;;;;;;;4.23;3.60;;;-1.60;99.90;;;-0.69;77.89;101239.16;5054158;28;20264;-62
2021/01/16 05:55:59;;;;;;;3.80;3.13;;;-1.60;99.90;;;-0.65;76.81;101230.88;5054294;28;20621;-61
2021/01/16 05:58:33;;;;;;;4.83;3.30;;;-1.50;99.90;;;-0.58;76.20;101245.31;5054254;28;20251;-61
2021/01/16 06:01:06;;;;;;;3.93;3.10;;;-1.50;99.90;;;-0.80;77.09;101245.31;5053932;28;20276;-61
2021/01/16 06:03:37;;;;;;;4.10;3.20;;;-1.50;99.90;;;-0.66;76.20;101237.13;5053950;28;20181;-62
2021/01/16 06:06:10;;;;;;;4.17;3.30;;;-1.50;99.90;;;-0.65;76.11;101240.63;5054096;28;20196;-62
2021/01/16 06:08:49;;;;;;;5.50;3.90;;;-1.50;99.90;;;-0.80;76.95;101242.69;5053913;28;20215;-62
2021/01/16 06:11:17;;;;;;;4.30;3.57;;;-1.60;99.90;;;-0.67;76.71;101240.75;5053867;28;20657;-62
2021/01/16 06:13:48;;;;;;;4.43;3.80;;;-1.60;99.90;;;-0.58;76.29;101250.59;5053643;28;20754;-61
2021/01/16 06:16:19;;;;;;;4.20;3.27;;;-1.50;99.90;;;-0.51;76.43;101241.19;5053863;28;20189;-61
2021/01/16 06:18:51;;;;;;;4.20;3.43;;;-1.40;99.90;;;-0.66;75.64;101239.75;5053724;28;20193;-62
2021/01/16 06:21:26;;;;;;;4.93;3.50;;;-1.50;99.90;;;-1.06;77.79;101235.94;5053586;28;20591;-61
2021/01/16 06:23:56;;;;;;;4.30;3.50;;;-1.60;99.90;;;-0.80;78.94;101242.69;5053997;28;20270;-61
2021/01/16 06:26:24;;;;;;;4.73;3.70;;;-1.60;99.90;;;-0.71;78.47;101234.00;5053553;28;20201;-62
2021/01/16 06:28:56;;;;;;;4.20;3.60;;;-1.60;99.90;;;-0.82;76.40;101238.44;5053522;28;20724;-61
2021/01/16 06:31:26;;;;;;;4.00;3.23;;;-1.50;99.90;;;-0.64;77.22;101243.13;5053862;28;20212;-62
2021/01/16 06:33:59;;;;;;;4.80;3.63;;;-1.50;99.90;;;-0.52;78.27;101242.16;5053837;28;20241;-62
2021/01/16 06:36:33;;;;;;;5.63;3.73;;;-1.50;99.90;;;-0.68;76.50;101236.41;5053285;28;20672;-61
2021/01/16 06:39:05;;;;;;;4.70;3.73;;;-1.50;99.90;;;-0.86;78.11;101237.84;5053564;28;20267;-62
2021/01/16 06:41:34;;;;;;;4.47;4.07;;;-1.60;99.90;;;-0.68;77.08;101231.13;5051397;28;20759;-61
2021/01/16 06:44:13;;;;;;;4.67;3.73;;;-1.60;99.90;;;-0.64;76.71;101231.72;5053018;28;20722;-61
2021/01/16 06:46:46;;;;;;;5.00;3.93;;;-1.50;99.90;;;-0.58;77.48;101231.22;5053526;28;20292;-62
2021/01/16 06:49:21;;;;;;;4.47;3.73;;;-1.50;99.90;;;-0.61;77.30;101231.47;5053522;28;20200;-62
2021/01/16 06:51:50;;;;;;;5.53;3.80;;;-1.50;99.90;;;-0.73;77.96;101235.09;5052720;28;20189;-61
2021/01/16 06:54:23;;;;;;;7.17;4.27;;;-1.50;99.90;;;-0.63;76.73;101231.59;5053124;28;20312;-61
2021/01/16 06:57:06;;;;;;;5.93;4.03;;;-1.50;99.90;;;-0.91;78.35;101233.91;5052493;28;20279;-62
2021/01/16 06:59:36;;;;;;;6.07;3.97;;;-1.60;99.90;;;-0.57;78.17;101239.03;5053038;28;20576;-61
2021/01/16 07:02:27;;;;;;;5.97;3.90;;;-1.50;99.90;;;-0.65;79.15;101236.16;5053012;28;20190;-62
2021/01/16 07:04:57;;;;;;;5.67;4.33;;;-1.50;99.90;;;-0.82;77.89;101239.31;5053072;28;20193;-62
2021/01/16 07:07:33;;;;;;;4.80;3.87;;;-1.60;99.90;;;-0.89;78.29;101238.09;5052438;28;20707;-61
2021/01/16 07:10:06;;;;;;;5.57;4.03;;;-1.60;99.90;;;-0.72;78.71;101239.41;5052777;28;20216;-62
2021/01/16 07:12:34;;;;;;;4.50;3.70;;;-1.70;99.90;;;-0.91;78.85;101234.72;5052645;28;20288;-61
2021/01/16 07:15:04;;;;;;;5.33;3.80;;;-1.60;99.90;;;-0.79;77.02;101231.13;5052673;28;20293;-61
2021/01/16 07:17:33;;;;;;;5.93;4.00;;;-1.60;99.90;;;-0.83;77.72;101237.59;5052385;28;20227;-62
2021/01/16 07:20:01;;;;;;;6.27;4.10;;;-1.60;99.90;;;-0.59;76.96;101226.91;5052405;28;20208;-60
2021/01/16 07:22:30;;;;;;;5.17;3.93;;;-1.60;99.90;;;-0.69;77.02;101224.13;5052210;28;20205;-62
2021/01/16 07:25:00;;;;;;;4.50;3.27;;;-1.50;99.90;;;-0.66;75.00;101223.88;5052343;28;20301;-62
2021/01/16 07:27:29;;;;;;;3.47;2.97;;;-1.50;99.90;;;-0.73;74.88;101225.38;5052235;28;20235;-61
2021/01/16 07:29:58;;;;;;;3.57;2.63;;;-1.50;99.90;;;-0.65;73.13;101215.00;5052137;28;20201;-61
2021/01/16 07:32:39;;;;;;;3.27;2.60;;;-1.50;99.90;;;-0.86;74.08;101216.69;5052554;28;20287;-62
2021/01/16 07:35:09;;;;;;;4.90;2.73;;;-1.60;99.90;;;-0.53;72.51;101208.75;5052279;28;20189;-62
2021/01/16 07:37:37;;;;;;;3.63;2.63;;;-1.50;99.90;;;-0.61;72.41;101203.19;5052532;28;20263;-62
2021/01/16 07:40:24;;;;;;;2.53;2.33;;;-1.50;99.90;;;-0.27;71.69;101198.69;5052366;28;20636;-62
2021/01/16 07:42:54;;;;;;;3.13;2.67;;;-1.40;99.90;;;-0.32;71.37;101191.13;5052447;28;20186;-61
2021/01/16 07:45:26;;;;;;;3.33;3.03;;;-1.30;99.90;;;-0.66;72.17;101197.44;5052226;28;20208;-62
2021/01/16 07:47:56;;;;;;;5.00;3.97;;;-1.40;99.90;;;-0.48;72.20;101190.69;5051908;28;20840;-62
2021/01/16 07:50:27;;;;;;;5.10;4.50;;;-1.40;99.90;;;-0.38;72.36;101185.50;5052083;28;20323;-62
2021/01/16 07:52:57;;;;;;;3.80;3.50;;;-1.40;99.90;;;-0.50;71.65;101194.41;5051873;28;20642;-62
2021/01/16 07:55:45;;;;;;;3.50;2.97;;;-1.30;99.90;;;-0.34;70.22;101194.88;5052029;28;20244;-61
2021/01/16 07:58:34;;;;;;;3.70;3.20;;;-1.30;99.90;;;-0.21;68.58;101199.03;5052301;28;20182;-61
2021/01/16 08:01:14;;;;;;;5.10;3.43;;;-1.20;99.90;;;-0.39;68.90;101192.56;5052097;28;20200;-62
2021/01/16 08:04:24;;;;;;;6.07;4.10;;;-1.20;99.90;;;-0.48;70.19;101190.69;5052449;28;20247;-62
2021/01/16 08:07:10;;;;;;;6.13;4.47;;;-1.30;99.90;;;-0.35;69.79;101175.50;5053150;28;20213;-62
2021/01/16 08:09:57;;;;;;;6.63;4.03;;;-1.20;99.90;;;-0.54;69.65;101185.88;5056306;28;20249;-62
2021/01/16 08:12:27;;;;;;;5.33;4.00;;;-1.30;99.90;;;-0.42;69.44;101184.88;5055966;28;20201;-61
2021/01/16 08:14:55;;;;;;;5.80;4.60;;;-1.30;99.90;;;-0.45;71.04;101177.22;5056053;28;20256;-61
2021/01/16 08:17:33;;;;;;;6.13;4.43;;;-1.30;99.90;;;-0.45;70.71;101169.28;5055900;28;20240;-61
2021/01/16 08:20:18;;;;;;;7.63;4.77;;;-1.30;99.90;;;-0.29;70.12;101174.97;5055848;28;20258;-61
2021/01/16 08:22:51;;;;;;;8.77;5.03;;;-1.20;99.90;;;-0.32;71.11;101169.13;5055803;28;20185;-61
2021/01/16 08:25:24;;;;;;;6.63;4.77;;;-1.20;99.90;;;-0.23;70.39;101155.97;5056053;28;20185;-62
2021/01/16 08:27:53;;;;;;;6.80;4.27;;;-1.20;99.90;;;-0.24;70.13;101167.50;5055784;28;20606;-62
2021/01/16 08:30:25;;;;;;;6.00;4.80;;;-1.10;99.90;;;-0.24;70.78;101164.84;5055653;28;20255;-62
2021/01/16 08:32:57;;;;;;;6.37;4.37;;;-1.10;99.90;;;-0.26;70.44;101150.09;5055817;28;20189;-62
2021/01/16 08:35:30;;;;;;;4.90;4.23;;;-1.10;99.90;;;-0.15;70.11;101158.81;5055585;28;20193;-62
2021/01/16 08:38:25;;;;;;;4.53;4.07;;;-1.10;99.90;;;-0.26;69.63;101156.22;5055474;28;20283;-61
2021/01/16 08:41:06;;;;;;;5.60;4.47;;;-1.00;99.90;;;-0.19;70.93;101151.25;5055521;28;20193;-61
2021/01/16 08:43:37;;;;;;;7.10;5.13;;;-1.10;99.90;;;-0.04;71.04;101142.91;5055462;28;20251;-62
2021/01/16 08:46:16;;;;;;;7.23;4.90;;;-1.00;99.90;;;-0.15;71.72;101147.38;5055480;28;20221;-61
2021/01/16 08:49:00;;;;;;;6.53;4.53;;;-1.00;99.90;;;-0.01;71.88;101139.13;5055590;28;20188;-61
2021/01/16 08:51:38;;;;;;;7.00;4.73;;;-0.90;99.90;;;0.00;72.26;101146.13;5055528;28;20236;-62
2021/01/16 08:54:16;;;;;;;5.67;4.53;;;-0.90;99.90;;;-0.01;71.66;101142.63;5055756;28;20224;-61
2021/01/16 08:56:46;;;;;;;6.03;4.70;;;-0.80;99.90;;;0.11;71.44;101148.72;5053707;28;20292;-61
2021/01/16 08:59:20;;;;;;;7.40;5.10;;;-0.80;99.90;;;0.07;71.73;101149.09;5055882;28;20236;-61
2021/01/16 09:01:51;;;;;;;7.47;5.23;;;-0.80;99.90;;;0.24;71.70;101153.81;5055644;28;20648;-63
2021/01/16 09:04:22;;;;;;;7.90;5.60;;;-0.70;99.90;;;0.37;71.46;101151.81;5052761;28;20198;-64
2021/01/16 09:06:52;;;;;;;6.63;5.10;;;-0.70;99.90;;;0.21;71.68;101152.25;5054050;28;20201;-65
2021/01/16 09:09:28;;;;;;;6.93;5.17;;;-0.70;99.90;;;0.30;71.62;101161.25;5054649;28;20198;-65
2021/01/16 09:12:08;;;;;;;7.40;5.57;;;-0.60;99.90;;;0.41;71.19;101162.00;5054838;28;20201;-65
2021/01/16 09:14:36;;;;;;;7.13;6.17;;;-0.60;99.90;;;0.32;71.67;101173.41;5054622;28;20242;-64
2021/01/16 09:17:24;;;;;;;7.93;5.43;;;-0.60;99.90;;;0.29;72.06;101162.22;5054896;28;20232;-65
2021/01/16 09:19:58;;;;;;;6.00;4.87;;;-0.60;99.90;;;0.46;71.21;101167.75;5053822;28;20264;-64
2021/01/16 09:22:31;;;;;;;6.50;5.10;;;-0.60;99.90;;;0.45;70.99;101163.44;5054484;28;20195;-64
2021/01/16 09:25:20;;;;;;;7.17;5.73;;;-0.60;99.90;;;0.34;71.24;101163.50;5054136;28;20662;-63
2021/01/16 09:27:48;;;;;;;7.30;5.77;;;-0.60;99.90;;;0.54;71.56;101156.53;5054489;28;20213;-64
2021/01/16 09:30:24;;;;;;;7.30;5.60;;;-0.50;99.90;;;0.55;70.79;101159.03;5054302;28;20205;-63
2021/01/16 09:32:51;;;;;;;7.77;5.50;;;-0.50;99.90;;;0.37;71.30;101160.59;5054115;28;20727;-64
2021/01/16 09:35:36;;;;;;;7.73;5.70;;;-0.50;99.90;;;0.57;70.75;101162.41;5053705;28;20198;-65
2021/01/16 09:38:16;;;;;;;6.27;5.13;;;-0.40;99.90;;;0.55;71.79;101151.09;5054096;28;20648;-63
2021/01/16 09:40:45;;;;;;;8.37;5.83;;;-0.40;99.90;;;0.54;71.77;101159.16;5053756;28;20220;-62
2021/01/16 09:43:18;;;;;;;8.10;5.57;;;-0.40;99.90;;;0.38;70.76;101149.03;5054368;28;20280;-62
2021/01/16 09:45:56;;;;;;;8.07;6.13;;;-0.40;99.90;;;0.51;72.04;101152.31;5054321;28;20676;-63
2021/01/16 09:48:45;;;;;;;9.40;6.97;;;-0.40;99.90;;;0.54;71.90;101143.28;5054229;28;20276;-62
2021/01/16 09:51:14;;;;;;;8.43;6.63;;;-0.40;99.90;;;0.77;71.66;101140.31;5053074;28;20293;-62
2021/01/16 09:53:42;;;;;;;10.77;7.47;;;-0.30;99.90;;;0.80;72.01;101129.44;5053746;28;20253;-62
2021/01/16 09:56:10;;;;;;;11.37;9.23;;;-0.20;99.90;;;1.05;72.78;101144.03;5054181;28;20292;-61
2021/01/16 09:58:40;;;;;;;11.00;8.00;;;-0.10;99.90;;;0.89;72.25;101139.25;5054086;28;20546;-63
2021/01/16 10:01:20;;;;;;;9.43;6.63;;;-0.10;99.90;;;0.88;72.42;101126.94;5054043;28;20667;-61
2021/01/16 10:03:48;;;;;;;7.37;6.27;;;-0.10;99.90;;;0.87;72.28;101130.59;5053905;28;20279;-62
2021/01/16 10:06:18;;;;;;;7.20;6.17;;;-0.10;99.90;;;0.99;72.79;101133.97;5053857;28;20239;-61
2021/01/16 10:08:47;;;;;;;8.57;6.37;;;0.00;99.90;;;0.76;73.12;101132.50;5053838;28;20182;-62
2021/01/16 10:11:42;;;;;;;8.20;6.17;;;-0.10;99.90;;;0.58;74.14;101123.47;5053938;28;20702;-61
2021/01/16 10:14:15;;;;;;;8.30;5.93;;;-0.10;99.90;;;0.80;73.67;101136.53;5053601;28;20248;-63
2021/01/16 10:16:44;;;;;;;12.67;6.77;;;-0.10;99.90;;;0.75;73.56;101123.69;5052779;28;20285;-61
2021/01/16 10:19:13;;;;;;;9.63;6.70;;;-0.10;99.90;;;0.82;72.97;101116.03;5052754;28;20664;-62
2021/01/16 10:21:55;;;;;;;8.90;6.83;;;-0.10;99.90;;;0.95;73.12;101119.28;5053245;28;20259;-62
2021/01/16 10:24:26;;;;;;;12.97;7.80;;;-0.10;99.90;;;0.82;72.96;101116.03;5053252;28;20217;-63
2021/01/16 10:26:53;;;;;;;8.30;6.13;;;-0.10;99.90;;;0.88;73.32;101112.88;5053028;28;20195;-62
2021/01/16 10:29:30;;;;;;;13.43;8.23;;;0.00;99.90;;;0.89;72.55;101111.88;5053052;28;20302;-62
2021/01/16 10:32:21;;;;;;;9.67;6.87;;;0.00;99.90;;;1.01;71.49;101110.81;5052494;28;20196;-62
2021/01/16 10:34:50;;;;;;;10.43;7.50;;;0.10;99.90;;;1.21;71.37;101092.16;5053016;28;20226;-63